createdAt,value
2018-02-13T00:02:21.015Z,7.67
2018-02-13T00:04:48.645Z,7.43
2018-02-13T00:07:16.271Z,7.80
2018-02-13T00:09:43.893Z,9.03
2018-02-13T00:12:12.280Z,8.20
2018-02-13T00:14:39.912Z,8.10
2018-02-13T00:17:07.564Z,7.87
2018-02-13T00:19:35.174Z,9.10
2018-02-13T00:22:02.792Z,9.00
2018-02-13T00:24:30.428Z,8.57
2018-02-13T00:26:58.817Z,12.93
2018-02-13T00:29:27.208Z,8.53
2018-02-13T00:31:54.834Z,9.10
2018-02-13T00:34:22.458Z,8.00
2018-02-13T00:36:50.101Z,8.10
2018-02-13T00:39:17.732Z,8.17
2018-02-13T00:41:45.361Z,8.10
2018-02-13T00:44:12.984Z,8.90
2018-02-13T00:46:41.672Z,12.60
2018-02-13T00:49:10.060Z,7.80
2018-02-13T00:51:38.514Z,7.53
2018-02-13T00:54:06.080Z,8.30
2018-02-13T00:56:33.705Z,7.97
2018-02-13T00:59:01.324Z,8.10
2018-02-13T01:01:28.977Z,6.90
2018-02-13T01:03:56.604Z,7.90
2018-02-13T01:06:24.237Z,8.43
2018-02-13T01:08:52.624Z,7.23
2018-02-13T01:11:21.023Z,7.63
2018-02-13T01:13:49.405Z,6.60
2018-02-13T01:16:17.038Z,7.50
2018-02-13T01:18:44.655Z,7.30
2018-02-13T01:21:12.275Z,7.43
2018-02-13T01:23:40.257Z,7.07
2018-02-13T01:26:08.645Z,7.30
2018-02-13T01:28:37.038Z,11.50
2018-02-13T01:31:05.429Z,6.73
2018-02-13T01:33:33.062Z,6.53
2018-02-13T01:36:00.680Z,6.97
2018-02-13T01:38:28.312Z,6.50
2018-02-13T01:40:56.696Z,7.17
2018-02-13T01:43:25.126Z,6.10
2018-02-13T01:45:52.732Z,9.73
2018-02-13T01:48:20.716Z,6.50
2018-02-13T01:50:49.124Z,6.10
2018-02-13T01:53:16.745Z,5.77
2018-02-13T01:55:44.367Z,8.97
2018-02-13T01:58:13.018Z,6.43
2018-02-13T02:00:40.642Z,8.80
2018-02-13T02:03:08.268Z,6.40
2018-02-13T02:05:35.904Z,5.43
2018-02-13T02:08:03.528Z,5.93
2018-02-13T02:10:31.150Z,6.97
2018-02-13T02:12:58.772Z,5.57
2018-02-13T02:15:26.396Z,5.90
2018-02-13T02:17:54.019Z,9.03
2018-02-13T02:20:21.642Z,5.37
2018-02-13T02:22:49.269Z,5.90
2018-02-13T02:25:16.903Z,5.90
2018-02-13T02:27:44.520Z,5.97
2018-02-13T02:30:12.905Z,5.03
2018-02-13T02:35:29.584Z,5.00
2018-02-13T02:37:57.213Z,8.50
2018-02-13T02:40:24.836Z,5.47
2018-02-13T02:43:04.402Z,5.90
2018-02-13T02:45:32.789Z,5.87
2018-02-13T02:48:00.408Z,5.20
2018-02-13T02:50:28.063Z,8.67
2018-02-13T02:52:55.677Z,5.27
2018-02-13T02:55:24.064Z,8.53
2018-02-13T02:57:52.020Z,5.13
2018-02-13T03:00:20.576Z,5.13
2018-02-13T03:02:48.197Z,7.37
2018-02-13T03:05:15.820Z,5.00
2018-02-13T03:07:43.457Z,4.83
2018-02-13T03:10:11.088Z,5.13
2018-02-13T03:12:39.791Z,5.20
2018-02-13T03:15:07.420Z,5.63
2018-02-13T03:17:35.048Z,7.20
2018-02-13T03:20:03.091Z,4.60
2018-02-13T03:22:30.713Z,4.77
2018-02-13T03:24:58.356Z,5.03
2018-02-13T03:27:25.997Z,4.70
2018-02-13T03:29:53.672Z,4.90
2018-02-13T03:32:21.296Z,7.37
2018-02-13T03:34:48.936Z,4.53
2018-02-13T03:37:16.564Z,5.20
2018-02-13T03:39:44.191Z,4.70
2018-02-13T03:42:11.829Z,4.77
2018-02-13T03:44:42.799Z,4.83
2018-02-13T03:47:10.409Z,4.80
2018-02-13T03:49:38.076Z,5.00
2018-02-13T03:52:05.712Z,4.70
2018-02-13T03:54:34.120Z,7.40
2018-02-13T03:57:01.748Z,4.57
2018-02-13T03:59:29.371Z,4.80
2018-02-13T04:01:56.996Z,5.10
2018-02-13T04:04:25.389Z,4.93
2018-02-13T04:06:53.007Z,4.57
2018-02-13T04:09:20.640Z,7.17
2018-02-13T04:11:48.268Z,5.57
2018-02-13T04:14:16.661Z,4.33
2018-02-13T04:16:45.074Z,5.23
2018-02-13T04:19:12.692Z,4.43
2018-02-13T04:21:40.320Z,3.93
2018-02-13T04:24:07.956Z,4.37
2018-02-13T04:26:36.504Z,4.70
2018-02-13T04:29:04.150Z,4.40
2018-02-13T04:31:31.768Z,4.90
2018-02-13T04:33:59.396Z,4.47
2018-02-13T04:36:27.024Z,4.43
2018-02-13T04:38:54.663Z,4.73
2018-02-13T04:41:23.064Z,4.67
2018-02-13T04:43:50.692Z,3.77
2018-02-13T04:46:19.098Z,3.70
2018-02-13T04:48:47.488Z,4.07
2018-02-13T04:51:15.112Z,4.50
2018-02-13T04:53:42.740Z,4.00
2018-02-13T04:56:11.255Z,4.30
2018-02-13T04:58:38.887Z,4.10
2018-02-13T05:01:06.512Z,4.50
2018-02-13T05:03:34.144Z,6.30
2018-02-13T05:06:01.802Z,4.33
2018-02-13T05:08:29.458Z,4.00
2018-02-13T05:10:57.072Z,4.10
2018-02-13T05:13:24.695Z,4.20
2018-02-13T05:15:52.329Z,4.33
2018-02-13T05:18:20.717Z,4.20
2018-02-13T05:20:48.339Z,3.87
2018-02-13T05:23:16.736Z,3.90
2018-02-13T05:25:44.360Z,4.43
2018-02-13T05:28:11.984Z,4.63
2018-02-13T05:30:40.412Z,4.47
2018-02-13T05:33:08.032Z,4.07
2018-02-13T05:35:36.464Z,4.00
2018-02-13T05:38:04.083Z,4.20
2018-02-13T05:40:32.478Z,5.77
2018-02-13T05:43:00.868Z,4.10
2018-02-13T05:45:28.500Z,3.83
2018-02-13T05:47:56.176Z,4.30
2018-02-13T05:50:23.804Z,4.00
2018-02-13T05:52:51.430Z,4.07
2018-02-13T05:55:19.825Z,3.97
2018-02-13T05:57:47.446Z,3.50
2018-02-13T06:00:15.295Z,5.80
2018-02-13T06:02:42.912Z,4.00
2018-02-13T06:05:11.308Z,3.27
2018-02-13T06:07:38.936Z,4.10
2018-02-13T06:10:06.561Z,3.80
2018-02-13T06:12:34.194Z,3.80
2018-02-13T06:15:02.590Z,3.70
2018-02-13T06:17:30.217Z,4.13
2018-02-13T06:19:57.881Z,3.57
2018-02-13T06:22:25.508Z,3.57
2018-02-13T06:24:53.152Z,3.90
2018-02-13T06:27:20.796Z,4.20
2018-02-13T06:29:49.196Z,3.30
2018-02-13T06:32:16.824Z,3.40
2018-02-13T06:34:44.460Z,2.80
2018-02-13T06:37:12.084Z,2.77
2018-02-13T06:39:40.473Z,3.37
2018-02-13T06:42:08.129Z,3.03
2018-02-13T06:44:36.516Z,3.13
2018-02-13T06:47:04.148Z,3.10
2018-02-13T06:49:31.795Z,3.17
2018-02-13T06:51:59.426Z,3.23
2018-02-13T06:54:27.058Z,5.27
2018-02-13T06:56:54.688Z,3.20
2018-02-13T06:59:22.328Z,3.63
2018-02-13T07:01:49.965Z,3.27
2018-02-13T07:04:17.590Z,3.20
2018-02-13T07:06:45.224Z,3.20
2018-02-13T07:09:12.856Z,3.50
2018-02-13T07:11:40.472Z,3.40
2018-02-13T07:14:08.096Z,3.03
2018-02-13T07:16:35.750Z,2.97
2018-02-13T07:19:03.555Z,3.00
2018-02-13T07:21:31.192Z,3.87
2018-02-13T07:23:58.821Z,3.17
2018-02-13T07:26:26.444Z,3.63
2018-02-13T07:28:54.880Z,5.20
2018-02-13T07:31:22.503Z,4.10
2018-02-13T07:33:50.128Z,3.77
2018-02-13T07:36:17.764Z,4.50
2018-02-13T07:38:45.398Z,3.50
2018-02-13T07:41:13.781Z,3.50
2018-02-13T07:43:41.404Z,3.57
2018-02-13T07:46:09.048Z,4.00
2018-02-13T07:48:36.668Z,3.57
2018-02-13T07:51:05.051Z,3.40
2018-02-13T07:53:33.451Z,3.60
2018-02-13T07:56:01.081Z,3.33
2018-02-13T07:58:28.703Z,4.03
2018-02-13T08:00:56.964Z,3.73
2018-02-13T08:03:24.541Z,3.67
2018-02-13T08:05:52.479Z,3.60
2018-02-13T08:08:20.873Z,3.80
2018-02-13T08:10:48.499Z,3.23
2018-02-13T08:13:16.120Z,3.80
2018-02-13T08:15:43.742Z,4.10
2018-02-13T08:18:11.599Z,3.70
2018-02-13T08:20:39.218Z,2.90
2018-02-13T08:23:06.836Z,3.20
2018-02-13T08:25:34.463Z,3.77
2018-02-13T08:28:02.080Z,3.03
2018-02-13T08:30:29.705Z,3.10
2018-02-13T08:32:57.335Z,3.47
2018-02-13T08:35:25.741Z,3.50
2018-02-13T08:37:53.369Z,3.20
2018-02-13T08:40:21.001Z,3.67
2018-02-13T08:42:48.652Z,3.70
2018-02-13T08:45:16.288Z,3.57
2018-02-13T08:47:44.680Z,3.67
2018-02-13T08:50:13.059Z,5.07
2018-02-13T08:52:40.679Z,3.87
2018-02-13T08:55:08.324Z,3.60
2018-02-13T08:57:35.932Z,4.63
2018-02-13T09:00:03.588Z,3.27
2018-02-13T09:02:31.257Z,3.80
2018-02-13T09:04:58.880Z,3.10
2018-02-13T09:07:26.495Z,4.20
2018-02-13T09:09:54.120Z,3.27
2018-02-13T09:12:21.736Z,3.10
2018-02-13T09:14:49.351Z,3.43
2018-02-13T09:17:16.982Z,3.87
2018-02-13T09:19:45.373Z,3.70
2018-02-13T09:22:13.760Z,4.20
2018-02-13T09:24:41.387Z,3.60
2018-02-13T09:27:09.001Z,4.53
2018-02-13T09:29:36.617Z,4.10
2018-02-13T09:32:04.233Z,3.50
2018-02-13T09:34:31.861Z,3.60
2018-02-13T09:36:59.729Z,4.60
2018-02-13T09:39:27.356Z,3.87
2018-02-13T09:41:54.971Z,4.13
2018-02-13T09:44:22.588Z,3.30
2018-02-13T09:46:50.245Z,3.43
2018-02-13T09:49:17.863Z,3.47
2018-02-13T09:51:45.479Z,3.77
2018-02-13T09:54:13.104Z,3.77
2018-02-13T09:56:41.493Z,3.73
2018-02-13T09:59:09.869Z,3.30
2018-02-13T10:01:38.248Z,3.63
2018-02-13T10:04:06.624Z,3.60
2018-02-13T10:06:34.240Z,3.43
2018-02-13T10:09:01.864Z,3.40
2018-02-13T10:11:29.480Z,3.77
2018-02-13T10:13:57.113Z,3.90
2018-02-13T10:16:25.497Z,3.33
2018-02-13T10:18:53.880Z,3.40
2018-02-13T10:21:21.500Z,2.93
2018-02-13T10:23:49.112Z,3.17
2018-02-13T10:26:17.485Z,3.77
2018-02-13T10:28:45.869Z,2.93
2018-02-13T10:31:14.260Z,3.20
2018-02-13T10:33:41.885Z,3.63
2018-02-13T10:36:09.503Z,3.53
2018-02-13T10:38:37.128Z,3.07
2018-02-13T10:41:04.780Z,3.03
2018-02-13T10:43:32.371Z,2.60
2018-02-13T10:46:00.761Z,3.60
2018-02-13T10:48:29.156Z,2.53
2018-02-13T10:50:56.776Z,2.73
2018-02-13T10:53:24.396Z,2.90
2018-02-13T10:55:52.035Z,2.90
2018-02-13T10:58:19.651Z,2.40
2018-02-13T11:00:47.287Z,3.00
2018-02-13T11:03:14.889Z,2.70
2018-02-13T11:05:43.132Z,2.97
2018-02-13T11:08:10.760Z,2.77
2018-02-13T11:10:38.387Z,2.67
2018-02-13T11:13:06.016Z,3.00
2018-02-13T11:15:34.404Z,3.13
2018-02-13T11:18:02.810Z,2.30
2018-02-13T11:20:31.177Z,2.50
2018-02-13T11:22:59.556Z,2.90
2018-02-13T11:25:40.050Z,2.50
2018-02-13T11:28:07.660Z,2.60
2018-02-13T11:30:35.276Z,2.87
2018-02-13T11:33:02.896Z,2.70
2018-02-13T11:35:30.516Z,2.13
2018-02-13T11:37:58.131Z,2.70
2018-02-13T11:40:26.522Z,2.40
2018-02-13T11:42:54.889Z,2.40
2018-02-13T11:45:22.504Z,2.47
2018-02-13T11:47:50.133Z,2.40
2018-02-13T11:50:18.532Z,3.63
2018-02-13T11:52:46.145Z,1.87
2018-02-13T11:55:13.760Z,2.07
2018-02-13T11:57:42.151Z,2.20
2018-02-13T12:00:09.781Z,2.60
2018-02-13T12:02:38.168Z,2.20
2018-02-13T12:05:05.789Z,2.33
2018-02-13T12:07:33.399Z,2.13
2018-02-13T12:10:01.021Z,2.57
2018-02-13T12:12:28.659Z,2.50
2018-02-13T12:14:56.281Z,3.23
2018-02-13T12:17:23.895Z,3.30
2018-02-13T12:19:51.520Z,2.30
2018-02-13T12:22:19.137Z,2.07
2018-02-13T12:24:46.760Z,3.10
2018-02-13T12:27:14.391Z,2.30
2018-02-13T12:29:42.020Z,3.30
2018-02-13T12:32:10.417Z,2.27
2018-02-13T12:34:38.037Z,2.70
2018-02-13T12:37:05.656Z,2.60
2018-02-13T12:39:33.268Z,2.40
2018-02-13T12:42:01.660Z,2.27
2018-02-13T12:44:29.281Z,2.03
2018-02-13T12:46:56.901Z,2.63
2018-02-13T12:49:25.311Z,2.40
2018-02-13T12:51:53.688Z,3.83
2018-02-13T12:54:22.380Z,2.90
2018-02-13T12:56:50.352Z,2.40
2018-02-13T12:59:17.972Z,2.40
2018-02-13T13:01:45.609Z,2.83
2018-02-13T13:04:13.220Z,2.67
2018-02-13T13:06:40.831Z,2.70
2018-02-13T13:09:08.488Z,2.13
2018-02-13T13:11:36.196Z,2.30
2018-02-13T13:14:11.364Z,2.50
2018-02-13T13:16:39.743Z,2.20
2018-02-13T13:19:08.153Z,2.40
2018-02-13T13:21:35.776Z,2.60
2018-02-13T13:24:03.431Z,2.40
2018-02-13T13:26:31.051Z,2.40
2018-02-13T13:28:58.702Z,2.40
2018-02-13T13:31:27.085Z,2.93
2018-02-13T13:33:55.468Z,2.43
2018-02-13T13:36:23.872Z,2.63
2018-02-13T13:38:51.503Z,2.90
2018-02-13T13:41:24.068Z,2.77
2018-02-13T13:43:51.683Z,2.83
2018-02-13T13:46:19.299Z,2.60
2018-02-13T13:48:46.916Z,3.47
2018-02-13T13:51:14.536Z,2.37
2018-02-13T13:53:42.168Z,3.53
2018-02-13T13:56:09.850Z,3.00
2018-02-13T13:58:43.938Z,2.70
2018-02-13T14:04:01.228Z,2.30
2018-02-13T14:06:28.852Z,2.60
2018-02-13T14:08:56.486Z,2.87
2018-02-13T14:11:24.112Z,3.33
2018-02-13T14:13:51.732Z,3.50
2018-02-13T14:16:19.344Z,2.70
2018-02-13T14:18:46.968Z,3.40
2018-02-13T14:21:14.583Z,2.40
2018-02-13T14:23:42.197Z,2.73
2018-02-13T14:26:09.820Z,2.70
2018-02-13T14:28:37.440Z,2.77
2018-02-13T14:31:05.076Z,3.67
2018-02-13T14:33:33.481Z,2.63
2018-02-13T14:36:01.096Z,2.50
2018-02-13T14:38:28.716Z,2.70
2018-02-13T14:40:56.336Z,3.20
2018-02-13T14:43:23.982Z,3.60
2018-02-13T14:45:51.584Z,2.90
2018-02-13T14:48:19.967Z,2.60
2018-02-13T14:50:48.345Z,2.83
2018-02-13T14:53:16.727Z,2.63
2018-02-13T14:55:45.109Z,3.17
2018-02-13T14:58:23.256Z,3.03
2018-02-13T15:00:51.355Z,3.40
2018-02-13T15:03:18.964Z,2.83
2018-02-13T15:05:46.943Z,2.83
2018-02-13T15:08:15.324Z,2.57
2018-02-13T15:10:42.936Z,2.37
2018-02-13T15:13:10.564Z,2.87
2018-02-13T15:15:38.180Z,3.23
2018-02-13T15:18:06.768Z,2.83
2018-02-13T15:20:34.478Z,3.00
2018-02-13T15:23:02.368Z,3.37
2018-02-13T15:25:29.977Z,2.60
2018-02-13T15:27:57.595Z,2.70
2018-02-13T15:30:25.216Z,2.73
2018-02-13T15:32:52.827Z,2.93
2018-02-13T15:35:20.452Z,3.07
2018-02-13T15:37:48.206Z,2.80
2018-02-13T15:40:16.050Z,2.60
2018-02-13T15:42:50.152Z,3.17
2018-02-13T15:45:17.775Z,2.60
2018-02-13T15:47:45.461Z,2.90
2018-02-13T15:50:13.324Z,2.80
2018-02-13T15:52:41.700Z,2.70
2018-02-13T15:55:09.317Z,3.00
2018-02-13T15:57:36.928Z,3.10
2018-02-13T16:00:04.543Z,3.30
2018-02-13T16:02:32.157Z,2.83
2018-02-13T16:05:00.556Z,3.60
2018-02-13T16:07:28.952Z,2.67
2018-02-13T16:09:56.556Z,3.17
2018-02-13T16:12:24.179Z,3.27
2018-02-13T16:14:51.805Z,2.70
2018-02-13T16:17:19.422Z,2.87
2018-02-13T16:19:47.045Z,2.90
2018-02-13T16:22:14.667Z,3.47
2018-02-13T16:24:42.280Z,3.07
2018-02-13T16:27:09.899Z,3.33
2018-02-13T16:29:37.536Z,3.80
2018-02-13T16:32:05.915Z,3.40
2018-02-13T16:34:34.300Z,3.60
2018-02-13T16:37:02.676Z,3.60
2018-02-13T16:39:31.047Z,3.40
2018-02-13T16:42:02.063Z,3.13
2018-02-13T16:44:35.440Z,3.80
2018-02-13T16:47:03.082Z,3.47
2018-02-13T16:49:30.690Z,3.47
2018-02-13T16:51:59.320Z,3.50
2018-02-13T16:54:27.721Z,3.10
2018-02-13T16:56:55.308Z,2.87
2018-02-13T16:59:23.176Z,3.20
2018-02-13T17:01:50.796Z,2.97
2018-02-13T17:04:18.408Z,2.90
2018-02-13T17:06:46.021Z,2.90
2018-02-13T17:09:13.648Z,2.60
2018-02-13T17:11:41.272Z,3.20
2018-02-13T17:14:09.656Z,2.67
2018-02-13T17:16:38.046Z,2.87
2018-02-13T17:19:06.418Z,3.30
2018-02-13T17:21:34.801Z,3.20
2018-02-13T17:24:09.816Z,2.60
2018-02-13T17:26:37.423Z,3.27
2018-02-13T17:29:06.054Z,3.10
2018-02-13T17:31:33.688Z,2.70
2018-02-13T17:34:01.299Z,2.97
2018-02-13T17:36:28.935Z,3.37
2018-02-13T17:38:56.577Z,3.63
2018-02-13T17:41:24.196Z,3.63
2018-02-13T17:43:51.817Z,3.70
2018-02-13T17:46:19.440Z,4.10
2018-02-13T17:48:47.064Z,3.63
2018-02-13T17:51:14.701Z,3.60
2018-02-13T17:53:42.343Z,3.90
2018-02-13T17:56:10.733Z,3.97
2018-02-13T17:58:39.153Z,3.80
2018-02-13T18:01:06.769Z,3.80
2018-02-13T18:03:35.168Z,4.83
2018-02-13T18:06:06.590Z,4.50
2018-02-13T18:08:34.224Z,5.30
2018-02-13T18:11:01.872Z,6.70
2018-02-13T18:13:29.516Z,5.10
2018-02-13T18:15:57.202Z,17.80
2018-02-13T18:18:24.821Z,8.97
2018-02-13T18:20:52.455Z,15.47
2018-02-13T18:23:20.104Z,23.30
2018-02-13T18:25:47.735Z,8.57
2018-02-13T18:28:16.127Z,6.80
2018-02-13T18:30:43.771Z,7.77
2018-02-13T18:33:22.045Z,7.23
2018-02-13T18:35:49.667Z,7.10
2018-02-13T18:38:17.297Z,6.47
2018-02-13T18:40:44.924Z,5.60
2018-02-13T18:43:12.549Z,5.30
2018-02-13T18:45:40.948Z,5.00
2018-02-13T18:48:09.332Z,6.00
2018-02-13T18:50:36.964Z,4.80
2018-02-13T18:55:32.235Z,5.00
2018-02-13T18:57:59.852Z,5.50
2018-02-13T19:00:27.475Z,5.10
2018-02-13T19:02:55.096Z,4.67
2018-02-13T19:05:23.505Z,5.30
2018-02-13T19:07:51.895Z,5.13
2018-02-13T19:10:19.517Z,5.50
2018-02-13T19:12:47.144Z,6.03
2018-02-13T19:15:14.764Z,5.80
2018-02-13T19:17:42.384Z,5.20
2018-02-13T19:20:10.028Z,5.10
2018-02-13T19:22:37.663Z,5.57
2018-02-13T19:25:05.338Z,4.80
2018-02-13T19:27:32.991Z,5.63
2018-02-13T19:30:07.496Z,5.53
2018-02-13T19:32:35.131Z,5.43
2018-02-13T19:35:02.768Z,6.07
2018-02-13T19:37:31.156Z,5.20
2018-02-13T19:39:59.549Z,5.23
2018-02-13T19:42:41.829Z,6.17
2018-02-13T19:45:10.227Z,8.00
2018-02-13T19:47:37.857Z,5.33
2018-02-13T19:50:05.489Z,5.37
2018-02-13T19:52:33.128Z,9.03
2018-02-13T19:55:00.806Z,6.60
2018-02-13T19:57:28.424Z,5.77
2018-02-13T19:59:56.082Z,6.23
2018-02-13T20:02:23.711Z,7.00
2018-02-13T20:04:51.352Z,6.67
2018-02-13T20:07:19.748Z,6.90
2018-02-13T20:09:47.372Z,6.23
2018-02-13T20:12:15.018Z,6.67
2018-02-13T20:14:42.640Z,7.60
2018-02-13T20:17:10.276Z,10.90
2018-02-13T20:19:37.912Z,7.50
2018-02-13T20:22:16.221Z,7.57
2018-02-13T20:24:43.848Z,7.23
2018-02-13T20:27:11.484Z,9.83
2018-02-13T20:29:39.115Z,6.63
2018-02-13T20:32:06.743Z,6.40
2018-02-13T20:34:34.376Z,10.13
2018-02-13T20:37:02.016Z,6.43
2018-02-13T20:39:29.644Z,5.70
2018-02-13T20:41:57.268Z,6.40
2018-02-13T20:44:24.898Z,6.63
2018-02-13T20:46:52.532Z,9.80
2018-02-13T20:49:20.923Z,6.53
2018-02-13T20:51:49.496Z,6.77
2018-02-13T20:54:17.960Z,6.83
2018-02-13T20:56:46.388Z,7.03
2018-02-13T20:59:14.020Z,11.30
2018-02-13T21:01:41.651Z,6.83
2018-02-13T21:04:09.290Z,11.90
2018-02-13T21:06:36.980Z,8.30
2018-02-13T21:09:04.648Z,12.37
2018-02-13T21:11:32.303Z,7.83
2018-02-13T21:14:00.784Z,10.57
2018-02-13T21:16:28.412Z,12.83
2018-02-13T21:18:56.828Z,18.00
2018-02-13T21:21:24.492Z,12.33
2018-02-13T21:23:52.115Z,15.07
2018-02-13T21:26:19.958Z,10.27
2018-02-13T21:28:47.608Z,11.20
2018-02-13T21:31:15.264Z,17.00
2018-02-13T21:33:42.895Z,9.40
2018-02-13T21:36:11.230Z,14.90
2018-02-13T21:38:38.900Z,8.43
2018-02-13T21:41:07.516Z,9.60
2018-02-13T21:43:35.160Z,12.57
2018-02-13T21:46:02.820Z,9.17
2018-02-13T21:48:31.448Z,15.17
2018-02-13T21:50:59.098Z,10.33
2018-02-13T21:53:26.740Z,10.90
2018-02-13T21:55:54.494Z,15.07
2018-02-13T21:58:22.185Z,9.87
2018-02-13T22:00:50.284Z,9.30
2018-02-13T22:03:18.000Z,9.70
2018-02-13T22:05:46.386Z,8.93
2018-02-13T22:08:14.013Z,12.73
2018-02-13T22:10:41.932Z,8.47
2018-02-13T22:13:09.598Z,7.43
2018-02-13T22:15:37.256Z,8.13
2018-02-13T22:18:04.890Z,8.13
2018-02-13T22:20:32.543Z,7.93
2018-02-13T22:23:00.164Z,11.90
2018-02-13T22:25:27.788Z,8.03
2018-02-13T22:27:55.439Z,11.73
2018-02-13T22:30:23.081Z,7.40
2018-02-13T22:32:50.728Z,10.90
2018-02-13T22:35:18.389Z,6.60
2018-02-13T22:37:46.190Z,10.20
2018-02-13T22:40:13.783Z,5.50
2018-02-13T22:42:41.436Z,8.40
2018-02-13T22:45:09.091Z,5.50
2018-02-13T22:47:36.730Z,5.20
2018-02-13T22:50:04.390Z,4.30
2018-02-13T22:52:32.106Z,6.37
2018-02-13T22:54:59.712Z,4.10
2018-02-13T22:57:27.353Z,6.80
2018-02-13T22:59:54.980Z,4.97
2018-02-13T23:02:23.632Z,4.73
2018-02-13T23:04:51.283Z,5.10
2018-02-13T23:07:18.916Z,4.43
2018-02-13T23:09:46.616Z,5.03
2018-02-13T23:12:15.044Z,8.23
2018-02-13T23:14:42.661Z,7.77
2018-02-13T23:17:11.110Z,11.40
2018-02-13T23:19:38.788Z,11.53
2018-02-13T23:22:06.406Z,6.70
2018-02-13T23:24:34.115Z,5.23
2018-02-13T23:27:01.748Z,5.30
2018-02-13T23:29:29.376Z,5.20
2018-02-13T23:31:57.015Z,4.90
2018-02-13T23:34:24.772Z,4.57
2018-02-13T23:36:52.511Z,4.70
2018-02-13T23:39:20.163Z,5.33
2018-02-13T23:41:47.834Z,7.67
2018-02-13T23:44:15.641Z,5.43
2018-02-13T23:46:43.374Z,5.53
2018-02-13T23:49:11.037Z,5.13
2018-02-13T23:51:39.531Z,5.30
2018-02-13T23:54:07.203Z,5.07
2018-02-13T23:56:34.888Z,5.90
2018-02-13T23:59:02.643Z,7.87
